sensor_id;sensor_type;location;lat;lon;timestamp;pressure;altitude;pressure_sealevel;temperature;humidity
77537;BME280;67783;51.656;16.106;2023-06-14T00:00:20;101840.02;;;14.32;57.67
77537;BME280;67783;51.656;16.106;2023-06-14T00:03:26;101842.71;;;14.32;58.25
77537;BME280;67783;51.656;16.106;2023-06-14T00:06:31;101844.26;;;14.36;57.61
77537;BME280;67783;51.656;16.106;2023-06-14T00:09:34;101844.13;;;14.38;57.59
77537;BME280;67783;51.656;16.106;2023-06-14T00:12:40;101844.26;;;14.36;59.94
77537;BME280;67783;51.656;16.106;2023-06-14T00:15:42;101845.00;;;14.38;57.39
77537;BME280;67783;51.656;16.106;2023-06-14T00:18:44;101846.96;;;14.36;58.37
77537;BME280;67783;51.656;16.106;2023-06-14T00:21:45;101844.13;;;14.38;57.47
77537;BME280;67783;51.656;16.106;2023-06-14T00:24:48;101834.81;;;14.29;58.13
77537;BME280;67783;51.656;16.106;2023-06-14T00:28:00;101841.07;;;14.29;61.16
77537;BME280;67783;51.656;16.106;2023-06-14T00:31:02;101837.42;;;14.30;57.90
77537;BME280;67783;51.656;16.106;2023-06-14T00:34:04;101837.73;;;14.26;59.08
77537;BME280;67783;51.656;16.106;2023-06-14T00:37:05;101838.70;;;14.25;58.04
77537;BME280;67783;51.656;16.106;2023-06-14T00:40:08;101834.71;;;14.18;58.70
77537;BME280;67783;51.656;16.106;2023-06-14T00:43:09;101845.73;;;14.15;58.32
77537;BME280;67783;51.656;16.106;2023-06-14T00:46:11;101845.08;;;14.11;58.79
77537;BME280;67783;51.656;16.106;2023-06-14T00:49:17;101838.91;;;14.09;61.82
77537;BME280;67783;51.656;16.106;2023-06-14T00:52:19;101844.09;;;14.12;58.77
77537;BME280;67783;51.656;16.106;2023-06-14T00:55:21;101839.77;;;14.10;59.77
77537;BME280;67783;51.656;16.106;2023-06-14T00:58:23;101845.08;;;14.11;58.84
77537;BME280;67783;51.656;16.106;2023-06-14T01:01:25;101840.86;;;14.07;59.35
77537;BME280;67783;51.656;16.106;2023-06-14T01:04:37;101839.36;;;14.03;61.68
77537;BME280;67783;51.656;16.106;2023-06-14T01:11:02;101831.02;;;13.94;59.38
77537;BME280;67783;51.656;16.106;2023-06-14T01:14:07;101835.86;;;13.88;61.24
77537;BME280;67783;51.656;16.106;2023-06-14T01:17:13;101831.12;;;13.92;59.17
77537;BME280;67783;51.656;16.106;2023-06-14T01:20:22;101833.95;;;13.91;59.53
77537;BME280;67783;51.656;16.106;2023-06-14T01:23:29;101834.81;;;13.91;62.06
77537;BME280;67783;51.656;16.106;2023-06-14T01:26:33;101834.69;;;13.93;59.15
77537;BME280;67783;51.656;16.106;2023-06-14T01:29:35;101837.59;;;13.90;59.79
77537;BME280;67783;51.656;16.106;2023-06-14T01:32:38;101831.12;;;13.92;59.06
77537;BME280;67783;51.656;16.106;2023-06-14T01:35:46;101830.25;;;13.92;59.52
77537;BME280;67783;51.656;16.106;2023-06-14T01:38:51;101824.87;;;13.92;61.62
77537;BME280;67783;51.656;16.106;2023-06-14T01:41:53;101821.75;;;13.98;59.00
77537;BME280;67783;51.656;16.106;2023-06-14T01:44:55;101829.74;;;13.99;59.45
77537;BME280;67783;51.656;16.106;2023-06-14T01:47:58;101840.86;;;14.07;58.64
77537;BME280;67783;51.656;16.106;2023-06-14T01:51:01;101836.34;;;14.08;58.88
77537;BME280;67783;51.656;16.106;2023-06-14T01:54:11;101830.95;;;14.08;60.66
77537;BME280;67783;51.656;16.106;2023-06-14T01:57:12;101834.16;;;14.13;58.50
77537;BME280;67783;51.656;16.106;2023-06-14T02:00:15;101818.98;;;14.12;59.20
77537;BME280;67783;51.656;16.106;2023-06-14T02:03:19;101821.33;;;14.16;58.40
77537;BME280;67783;51.656;16.106;2023-06-14T02:06:20;101827.48;;;14.18;58.72
77537;BME280;67783;51.656;16.106;2023-06-14T02:09:31;101834.63;;;14.19;60.56
77537;BME280;67783;51.656;16.106;2023-06-14T02:12:33;101832.66;;;14.21;58.54
77537;BME280;67783;51.656;16.106;2023-06-14T02:15:34;101836.45;;;14.19;59.42
77537;BME280;67783;51.656;16.106;2023-06-14T02:18:36;101832.66;;;14.21;58.61
77537;BME280;67783;51.656;16.106;2023-06-14T02:21:38;101833.52;;;14.22;58.96
77537;BME280;67783;51.656;16.106;2023-06-14T02:24:39;101827.91;;;14.25;58.49
77537;BME280;67783;51.656;16.106;2023-06-14T02:27:41;101823.38;;;14.25;58.87
77537;BME280;67783;51.656;16.106;2023-06-14T02:30:46;101814.23;;;14.28;60.62
77537;BME280;67783;51.656;16.106;2023-06-14T02:33:47;101823.70;;;14.33;58.63
77537;BME280;67783;51.656;16.106;2023-06-14T02:36:49;101814.74;;;14.33;59.38
77537;BME280;67783;51.656;16.106;2023-06-14T02:39:51;101819.98;;;14.36;58.63
77537;BME280;67783;51.656;16.106;2023-06-14T02:42:52;101832.47;;;14.37;59.20
77537;BME280;67783;51.656;16.106;2023-06-14T02:45:54;101830.55;;;14.39;58.77
77537;BME280;67783;51.656;16.106;2023-06-14T02:48:56;101835.37;;;14.34;59.61
77537;BME280;67783;51.656;16.106;2023-06-14T02:52:01;101836.13;;;14.23;62.91
77537;BME280;67783;51.656;16.106;2023-06-14T02:55:05;101839.69;;;14.24;59.73
77537;BME280;67783;51.656;16.106;2023-06-14T02:58:07;101840.66;;;14.23;60.54
77537;BME280;67783;51.656;16.106;2023-06-14T03:01:08;101835.81;;;14.28;59.61
77537;BME280;67783;51.656;16.106;2023-06-14T03:04:14;101836.55;;;14.30;59.92
77537;BME280;67783;51.656;16.106;2023-06-14T03:07:21;101838.29;;;14.31;61.88
77537;BME280;67783;51.656;16.106;2023-06-14T03:10:26;101843.27;;;14.37;59.73
77537;BME280;67783;51.656;16.106;2023-06-14T03:13:30;101836.03;;;14.38;60.34
77537;BME280;67783;51.656;16.106;2023-06-14T03:16:34;101833.02;;;14.42;59.60
77537;BME280;67783;51.656;16.106;2023-06-14T03:19:38;101829.26;;;14.45;59.87
77537;BME280;67783;51.656;16.106;2023-06-14T03:22:42;101826.33;;;14.48;61.93
77537;BME280;67783;51.656;16.106;2023-06-14T03:25:48;101826.74;;;14.54;59.63
77537;BME280;67783;51.656;16.106;2023-06-14T03:28:50;101829.24;;;14.57;60.11
77537;BME280;67783;51.656;16.106;2023-06-14T03:31:58;101835.05;;;14.64;59.27
77537;BME280;67783;51.656;16.106;2023-06-14T03:35:00;101835.92;;;14.64;59.62
77537;BME280;67783;51.656;16.106;2023-06-14T03:38:05;101838.63;;;14.64;61.56
77537;BME280;67783;51.656;16.106;2023-06-14T03:41:07;101844.32;;;14.72;59.38
77537;BME280;67783;51.656;16.106;2023-06-14T03:44:08;101851.33;;;14.75;60.11
77537;BME280;67783;51.656;16.106;2023-06-14T03:47:10;101859.00;;;14.81;59.24
77537;BME280;67783;51.656;16.106;2023-06-14T03:50:12;101855.20;;;14.84;59.60
77537;BME280;67783;51.656;16.106;2023-06-14T03:53:13;101857.57;;;14.88;59.09
77537;BME280;67783;51.656;16.106;2023-06-14T03:56:15;101862.01;;;14.89;59.35
77537;BME280;67783;51.656;16.106;2023-06-14T03:59:20;101868.28;;;14.90;61.22
77537;BME280;67783;51.656;16.106;2023-06-14T04:02:22;101859.95;;;14.93;59.26
77537;BME280;67783;51.656;16.106;2023-06-14T04:05:24;101849.91;;;14.95;59.89
77537;BME280;67783;51.656;16.106;2023-06-14T04:08:27;101867.38;;;15.02;59.09
77537;BME280;67783;51.656;16.106;2023-06-14T04:11:29;101872.55;;;15.05;59.37
77537;BME280;67783;51.656;16.106;2023-06-14T04:14:41;101863.15;;;15.10;60.68
77537;BME280;67783;51.656;16.106;2023-06-14T04:17:42;101858.28;;;15.15;59.02
77537;BME280;67783;51.656;16.106;2023-06-14T04:20:44;101855.44;;;15.17;59.59
77537;BME280;67783;51.656;16.106;2023-06-14T04:23:46;101856.70;;;15.24;58.83
77537;BME280;67783;51.656;16.106;2023-06-14T04:26:49;101851.10;;;15.27;59.23
77537;BME280;67783;51.656;16.106;2023-06-14T04:30:02;101859.07;;;15.29;60.86
77537;BME280;67783;51.656;16.106;2023-06-14T04:33:05;101860.46;;;15.34;58.96
77537;BME280;67783;51.656;16.106;2023-06-14T04:36:07;101860.37;;;15.36;59.62
77537;BME280;67783;51.656;16.106;2023-06-14T04:39:09;101868.86;;;15.42;58.95
77537;BME280;67783;51.656;16.106;2023-06-14T04:42:10;101866.79;;;15.46;59.20
77537;BME280;67783;51.656;16.106;2023-06-14T04:45:22;101862.01;;;15.49;60.79
77537;BME280;67783;51.656;16.106;2023-06-14T04:48:24;101863.34;;;15.56;58.98
77537;BME280;67783;51.656;16.106;2023-06-14T04:51:26;101853.24;;;15.58;59.63
77537;BME280;67783;51.656;16.106;2023-06-14T04:54:30;101854.05;;;15.72;58.84
77537;BME280;67783;51.656;16.106;2023-06-14T04:57:35;101850.52;;;15.82;58.95
77537;BME280;67783;51.656;16.106;2023-06-14T05:00:43;101843.33;;;15.94;60.41
77537;BME280;67783;51.656;16.106;2023-06-14T05:03:44;101843.10;;;16.08;58.62
77537;BME280;67783;51.656;16.106;2023-06-14T05:06:50;101840.45;;;16.19;58.86
77537;BME280;67783;51.656;16.106;2023-06-14T05:09:52;101849.55;;;16.29;58.32
77537;BME280;67783;51.656;16.106;2023-06-14T05:12:53;101852.86;;;16.33;58.63
77537;BME280;67783;51.656;16.106;2023-06-14T05:16:03;101858.02;;;16.36;60.12
77537;BME280;67783;51.656;16.106;2023-06-14T05:19:06;101864.09;;;16.39;58.50
77537;BME280;67783;51.656;16.106;2023-06-14T05:22:08;101866.03;;;16.37;59.22
77537;BME280;67783;51.656;16.106;2023-06-14T05:25:09;101873.08;;;16.40;58.64
77537;BME280;67783;51.656;16.106;2023-06-14T05:28:11;101884.01;;;16.38;59.12
77537;BME280;67783;51.656;16.106;2023-06-14T05:31:12;101890.15;;;16.40;58.73
77537;BME280;67783;51.656;16.106;2023-06-14T05:34:14;101883.04;;;16.39;59.11
77537;BME280;67783;51.656;16.106;2023-06-14T05:37:19;101889.68;;;16.35;61.00
77537;BME280;67783;51.656;16.106;2023-06-14T05:40:21;101891.62;;;16.33;59.20
77537;BME280;67783;51.656;16.106;2023-06-14T05:43:22;101892.95;;;16.28;60.11
77537;BME280;67783;51.656;16.106;2023-06-14T05:46:24;101891.98;;;16.29;59.46
77537;BME280;67783;51.656;16.106;2023-06-14T05:49:27;101896.66;;;16.27;59.85
77537;BME280;67783;51.656;16.106;2023-06-14T05:52:28;101882.99;;;16.28;59.57
77537;BME280;67783;51.656;16.106;2023-06-14T05:55:30;101889.27;;;16.29;59.97
77537;BME280;67783;51.656;16.106;2023-06-14T05:58:35;101899.47;;;16.25;62.78
77537;BME280;67783;51.656;16.106;2023-06-14T06:01:37;101899.47;;;16.25;60.06
77537;BME280;67783;51.656;16.106;2023-06-14T06:04:41;101899.47;;;16.25;60.77
77537;BME280;67783;51.656;16.106;2023-06-14T06:07:42;101898.14;;;16.31;60.12
77537;BME280;67783;51.656;16.106;2023-06-14T06:10:47;101888.19;;;16.31;60.50
77537;BME280;67783;51.656;16.106;2023-06-14T06:13:56;101895.91;;;16.36;62.59
77537;BME280;67783;51.656;16.106;2023-06-14T06:16:58;101909.85;;;16.42;60.33
77537;BME280;67783;51.656;16.106;2023-06-14T06:19:59;101908.74;;;16.45;61.18
77537;BME280;67783;51.656;16.106;2023-06-14T06:23:01;101918.23;;;16.50;60.28
77537;BME280;67783;51.656;16.106;2023-06-14T06:26:03;101924.77;;;16.48;60.94
77537;BME280;67783;51.656;16.106;2023-06-14T06:29:05;101920.84;;;16.52;60.46
77537;BME280;67783;51.656;16.106;2023-06-14T06:32:07;101920.69;;;16.53;60.74
77537;BME280;67783;51.656;16.106;2023-06-14T06:35:12;101914.09;;;16.57;62.83
77537;BME280;67783;51.656;16.106;2023-06-14T06:38:16;101916.08;;;16.67;60.56
77537;BME280;67783;51.656;16.106;2023-06-14T06:41:19;101918.42;;;16.71;61.21
77537;BME280;67783;51.656;16.106;2023-06-14T06:44:21;101911.41;;;16.80;60.51
77537;BME280;67783;51.656;16.106;2023-06-14T06:47:23;101910.09;;;16.85;60.90
77537;BME280;67783;51.656;16.106;2023-06-14T06:50:32;101920.41;;;16.91;62.96
77537;BME280;67783;51.656;16.106;2023-06-14T06:53:34;101922.75;;;16.96;60.70
77537;BME280;67783;51.656;16.106;2023-06-14T06:56:36;101930.61;;;16.99;61.67
77537;BME280;67783;51.656;16.106;2023-06-14T06:59:37;101921.50;;;17.11;60.58
77537;BME280;67783;51.656;16.106;2023-06-14T07:02:39;101918.80;;;17.22;61.05
77537;BME280;67783;51.656;16.106;2023-06-14T07:05:41;101909.02;;;17.42;60.40
77537;BME280;67783;51.656;16.106;2023-06-14T07:08:42;101915.55;;;17.62;60.51
77537;BME280;67783;51.656;16.106;2023-06-14T07:11:47;101915.48;;;17.84;61.97
77537;BME280;67783;51.656;16.106;2023-06-14T07:14:49;101927.95;;;18.07;59.81
77537;BME280;67783;51.656;16.106;2023-06-14T07:17:51;101928.09;;;18.26;60.04
77537;BME280;67783;51.656;16.106;2023-06-14T07:20:54;101926.13;;;18.49;59.31
77537;BME280;67783;51.656;16.106;2023-06-14T07:23:58;101932.72;;;18.67;59.23
77537;BME280;67783;51.656;16.106;2023-06-14T07:27:08;101946.73;;;18.72;60.14
77537;BME280;67783;51.656;16.106;2023-06-14T07:30:11;101937.38;;;18.86;58.84
77537;BME280;67783;51.656;16.106;2023-06-14T07:33:13;101945.13;;;18.90;59.12
77537;BME280;67783;51.656;16.106;2023-06-14T07:36:15;101947.17;;;18.98;58.80
77537;BME280;67783;51.656;16.106;2023-06-14T07:39:18;101943.92;;;19.04;58.85
77537;BME280;67783;51.656;16.106;2023-06-14T07:42:28;101928.21;;;19.17;59.17
77537;BME280;67783;51.656;16.106;2023-06-14T07:45:30;101946.70;;;19.54;58.01
77537;BME280;67783;51.656;16.106;2023-06-14T07:48:32;101943.43;;;19.69;57.77
77537;BME280;67783;51.656;16.106;2023-06-14T07:51:33;101943.01;;;19.83;57.33
77537;BME280;67783;51.656;16.106;2023-06-14T07:54:36;101939.17;;;19.86;57.28
77537;BME280;67783;51.656;16.106;2023-06-14T07:57:38;101944.32;;;19.89;57.11
77537;BME280;67783;51.656;16.106;2023-06-14T08:00:40;101951.34;;;19.82;57.16
77537;BME280;67783;51.656;16.106;2023-06-14T08:03:44;101945.74;;;19.74;57.38
77537;BME280;67783;51.656;16.106;2023-06-14T08:06:46;101942.86;;;19.75;57.25
77537;BME280;67783;51.656;16.106;2023-06-14T08:09:49;101938.73;;;19.81;57.33
77537;BME280;67783;51.656;16.106;2023-06-14T08:12:50;101946.33;;;19.97;56.94
77537;BME280;67783;51.656;16.106;2023-06-14T08:15:52;101942.20;;;20.12;56.66
77537;BME280;67783;51.656;16.106;2023-06-14T08:18:54;101933.44;;;20.27;56.41
77537;BME280;67783;51.656;16.106;2023-06-14T08:21:56;101912.78;;;20.25;56.23
77537;BME280;67783;51.656;16.106;2023-06-14T08:25:01;101934.61;;;20.54;55.34
77537;BME280;67783;51.656;16.106;2023-06-14T08:28:03;101936.66;;;20.79;55.27
77537;BME280;67783;51.656;16.106;2023-06-14T08:31:04;101940.15;;;21.08;54.28
77537;BME280;67783;51.656;16.106;2023-06-14T08:34:06;101935.63;;;21.36;53.81
77537;BME280;67783;51.656;16.106;2023-06-14T08:37:08;101941.17;;;21.44;53.83
77537;BME280;67783;51.656;16.106;2023-06-14T08:40:22;101947.73;;;21.51;53.76
77537;BME280;67783;51.656;16.106;2023-06-14T08:43:24;101948.09;;;21.39;53.62
77537;BME280;67783;51.656;16.106;2023-06-14T08:46:32;101944.67;;;21.37;52.33
77537;BME280;67783;51.656;16.106;2023-06-14T08:49:38;101952.55;;;21.40;53.47
77537;BME280;67783;51.656;16.106;2023-06-14T08:52:41;101950.60;;;21.50;53.30
77537;BME280;67783;51.656;16.106;2023-06-14T08:55:55;101946.75;;;21.70;52.17
77537;BME280;67783;51.656;16.106;2023-06-14T08:58:58;101936.17;;;21.85;52.76
77537;BME280;67783;51.656;16.106;2023-06-14T09:02:06;101943.48;;;21.94;52.43
77537;BME280;67783;51.656;16.106;2023-06-14T09:05:08;101944.41;;;22.02;52.41
77537;BME280;67783;51.656;16.106;2023-06-14T09:08:09;101939.96;;;22.01;51.97
77537;BME280;67783;51.656;16.106;2023-06-14T09:11:17;101940.27;;;21.98;50.57
77537;BME280;67783;51.656;16.106;2023-06-14T09:14:24;101937.84;;;22.13;51.92
77537;BME280;67783;51.656;16.106;2023-06-14T09:17:26;101934.79;;;22.34;51.47
77537;BME280;67783;51.656;16.106;2023-06-14T09:20:29;101939.05;;;22.54;50.18
77537;BME280;67783;51.656;16.106;2023-06-14T09:26:41;101937.97;;;22.47;49.78
77537;BME280;67783;51.656;16.106;2023-06-14T09:29:42;101934.12;;;22.58;50.75
77537;BME280;67783;51.656;16.106;2023-06-14T09:32:44;101936.22;;;22.64;50.25
77537;BME280;67783;51.656;16.106;2023-06-14T09:35:51;101932.09;;;22.77;50.29
77537;BME280;67783;51.656;16.106;2023-06-14T09:39:00;101938.62;;;22.84;50.05
77537;BME280;67783;51.656;16.106;2023-06-14T09:42:16;101935.88;;;22.84;48.83
77537;BME280;67783;51.656;16.106;2023-06-14T09:45:13;101932.48;;;22.90;49.82
77537;BME280;67783;51.656;16.106;2023-06-14T09:48:20;101936.98;;;22.99;49.49
77537;BME280;67783;51.656;16.106;2023-06-14T09:51:25;101926.57;;;23.03;46.26
77537;BME280;67783;51.656;16.106;2023-06-14T09:54:29;101925.26;;;23.15;48.18
77537;BME280;67783;51.656;16.106;2023-06-14T09:57:32;101922.00;;;23.12;47.65
77537;BME280;67783;51.656;16.106;2023-06-14T10:00:37;101926.49;;;23.21;48.23
77537;BME280;67783;51.656;16.106;2023-06-14T10:03:40;101922.26;;;23.26;48.00
77537;BME280;67783;51.656;16.106;2023-06-14T10:06:45;101923.65;;;23.30;46.02
77537;BME280;67783;51.656;16.106;2023-06-14T10:09:47;101921.58;;;23.32;47.25
77537;BME280;67783;51.656;16.106;2023-06-14T10:12:51;101922.26;;;23.26;47.16
77537;BME280;67783;51.656;16.106;2023-06-14T10:16:02;101927.38;;;23.29;47.31
77537;BME280;67783;51.656;16.106;2023-06-14T10:19:17;101930.66;;;23.33;47.10
77537;BME280;67783;51.656;16.106;2023-06-14T10:22:29;101919.13;;;23.47;46.12
77537;BME280;67783;51.656;16.106;2023-06-14T10:25:31;101925.16;;;23.67;45.92
77537;BME280;67783;51.656;16.106;2023-06-14T10:28:37;101924.68;;;23.79;46.05
77537;BME280;67783;51.656;16.106;2023-06-14T10:31:47;101917.67;;;23.85;43.17
77537;BME280;67783;51.656;16.106;2023-06-14T10:34:55;101910.48;;;23.76;45.41
77537;BME280;67783;51.656;16.106;2023-06-14T10:41:10;101918.98;;;23.65;44.57
77537;BME280;67783;51.656;16.106;2023-06-14T10:47:34;101907.18;;;23.56;45.34
77537;BME280;67783;51.656;16.106;2023-06-14T10:50:42;101907.83;;;23.50;44.49
77537;BME280;67783;51.656;16.106;2023-06-14T10:53:49;101905.68;;;23.36;45.37
77537;BME280;67783;51.656;16.106;2023-06-14T10:56:53;101904.85;;;23.35;45.51
77537;BME280;67783;51.656;16.106;2023-06-14T11:00:02;101915.98;;;23.42;43.82
77537;BME280;67783;51.656;16.106;2023-06-14T11:03:31;101908.85;;;23.49;45.20
77537;BME280;67783;51.656;16.106;2023-06-14T11:06:59;101909.86;;;23.48;45.24
77537;BME280;67783;51.656;16.106;2023-06-14T11:09:51;101906.02;;;23.33;44.25
77537;BME280;67783;51.656;16.106;2023-06-14T11:12:57;101899.96;;;23.47;44.66
77537;BME280;67783;51.656;16.106;2023-06-14T11:15:58;101878.32;;;23.36;44.22
77537;BME280;67783;51.656;16.106;2023-06-14T11:19:03;101898.27;;;23.54;42.71
77537;BME280;67783;51.656;16.106;2023-06-14T11:22:05;101900.63;;;23.49;43.96
77537;BME280;67783;51.656;16.106;2023-06-14T11:25:09;101898.18;;;23.38;43.60
77537;BME280;67783;51.656;16.106;2023-06-14T11:28:11;101906.21;;;23.31;44.56
77537;BME280;67783;51.656;16.106;2023-06-14T11:31:13;101903.59;;;23.22;44.14
77537;BME280;67783;51.656;16.106;2023-06-14T11:34:24;101904.05;;;23.09;43.61
77537;BME280;67783;51.656;16.106;2023-06-14T11:37:27;101890.34;;;23.01;44.89
77537;BME280;67783;51.656;16.106;2023-06-14T11:40:31;101887.75;;;22.99;44.85
77537;BME280;67783;51.656;16.106;2023-06-14T11:43:33;101902.29;;;23.00;44.77
77537;BME280;67783;51.656;16.106;2023-06-14T11:46:36;101902.40;;;22.90;45.24
77537;BME280;67783;51.656;16.106;2023-06-14T11:49:44;101893.37;;;22.90;44.76
77537;BME280;67783;51.656;16.106;2023-06-14T11:52:54;101885.84;;;22.92;45.36
77537;BME280;67783;51.656;16.106;2023-06-14T11:55:57;101889.96;;;22.96;45.28
77537;BME280;67783;51.656;16.106;2023-06-14T11:58:59;101890.82;;;22.96;45.39
77537;BME280;67783;51.656;16.106;2023-06-14T12:02:03;101888.77;;;22.98;45.38
77537;BME280;67783;51.656;16.106;2023-06-14T12:05:08;101892.02;;;22.94;44.09
77537;BME280;67783;51.656;16.106;2023-06-14T12:08:11;101892.51;;;22.89;45.26
77537;BME280;67783;51.656;16.106;2023-06-14T12:11:18;101894.82;;;22.76;45.01
77537;BME280;67783;51.656;16.106;2023-06-14T12:14:20;101889.50;;;22.75;45.27
77537;BME280;67783;51.656;16.106;2023-06-14T12:17:22;101884.70;;;22.69;45.16
77537;BME280;67783;51.656;16.106;2023-06-14T12:20:30;101884.13;;;22.65;44.59
77537;BME280;67783;51.656;16.106;2023-06-14T12:23:39;101887.67;;;22.83;45.24
77537;BME280;67783;51.656;16.106;2023-06-14T12:26:41;101885.51;;;22.95;44.89
77537;BME280;67783;51.656;16.106;2023-06-14T12:30:00;101878.53;;;23.00;43.93
77537;BME280;67783;51.656;16.106;2023-06-14T12:33:03;101881.15;;;23.10;44.54
77537;BME280;67783;51.656;16.106;2023-06-14T12:36:07;101871.75;;;23.13;44.50
77537;BME280;67783;51.656;16.106;2023-06-14T12:39:21;101879.31;;;23.19;43.59
77537;BME280;67783;51.656;16.106;2023-06-14T12:42:23;101878.78;;;23.23;44.31
77537;BME280;67783;51.656;16.106;2023-06-14T12:45:24;101867.71;;;23.33;43.99
77537;BME280;67783;51.656;16.106;2023-06-14T12:48:26;101867.22;;;23.37;43.80
77537;BME280;67783;51.656;16.106;2023-06-14T12:51:30;101866.35;;;23.37;44.10
77537;BME280;67783;51.656;16.106;2023-06-14T12:54:40;101855.65;;;23.43;42.69
77537;BME280;67783;51.656;16.106;2023-06-14T12:57:42;101841.21;;;23.33;42.88
77537;BME280;67783;51.656;16.106;2023-06-14T13:00:43;101858.14;;;23.37;42.60
77537;BME280;67783;51.656;16.106;2023-06-14T13:03:48;101852.74;;;23.53;43.10
77537;BME280;67783;51.656;16.106;2023-06-14T13:06:54;101848.98;;;23.54;42.72
77537;BME280;67783;51.656;16.106;2023-06-14T13:10:01;101846.42;;;23.61;41.37
77537;BME280;67783;51.656;16.106;2023-06-14T13:13:03;101852.11;;;23.75;42.72
77537;BME280;67783;51.656;16.106;2023-06-14T13:16:05;101848.71;;;23.98;42.24
77537;BME280;67783;51.656;16.106;2023-06-14T13:19:06;101851.63;;;24.20;42.39
77537;BME280;67783;51.656;16.106;2023-06-14T13:22:08;101848.73;;;24.22;41.67
77537;BME280;67783;51.656;16.106;2023-06-14T13:25:10;101849.72;;;24.05;41.99
77537;BME280;67783;51.656;16.106;2023-06-14T13:28:11;101847.67;;;24.15;42.14
77537;BME280;67783;51.656;16.106;2023-06-14T13:31:16;101836.02;;;24.37;40.77
77537;BME280;67783;51.656;16.106;2023-06-14T13:34:18;101835.12;;;24.53;41.67
77537;BME280;67783;51.656;16.106;2023-06-14T13:37:19;101833.22;;;24.61;41.18
77537;BME280;67783;51.656;16.106;2023-06-14T13:40:21;101838.88;;;24.68;41.42
77537;BME280;67783;51.656;16.106;2023-06-14T13:43:22;101839.90;;;24.67;40.77
77537;BME280;67783;51.656;16.106;2023-06-14T13:46:25;101838.32;;;24.72;41.09
77537;BME280;67783;51.656;16.106;2023-06-14T13:49:26;101838.02;;;24.67;40.40
77537;BME280;67783;51.656;16.106;2023-06-14T13:52:31;101843.80;;;24.72;39.34
77537;BME280;67783;51.656;16.106;2023-06-14T13:55:33;101840.89;;;24.74;39.72
77537;BME280;67783;51.656;16.106;2023-06-14T13:58:35;101833.58;;;24.58;40.17
77537;BME280;67783;51.656;16.106;2023-06-14T14:01:36;101839.10;;;24.42;40.78
77537;BME280;67783;51.656;16.106;2023-06-14T14:04:39;101833.26;;;24.45;40.59
77537;BME280;67783;51.656;16.106;2023-06-14T14:07:41;101836.34;;;24.50;40.22
77537;BME280;67783;51.656;16.106;2023-06-14T14:10:46;101836.52;;;24.41;40.51
77537;BME280;67783;51.656;16.106;2023-06-14T14:13:51;101845.79;;;24.23;39.54
77537;BME280;67783;51.656;16.106;2023-06-14T14:16:53;101846.13;;;24.12;40.99
77537;BME280;67783;51.656;16.106;2023-06-14T14:19:56;101842.52;;;24.12;41.10
77537;BME280;67783;51.656;16.106;2023-06-14T14:22:58;101841.14;;;24.08;40.99
77537;BME280;67783;51.656;16.106;2023-06-14T14:26:03;101836.54;;;23.92;41.25
77537;BME280;67783;51.656;16.106;2023-06-14T14:29:12;101836.03;;;23.80;41.48
77537;BME280;67783;51.656;16.106;2023-06-14T14:32:14;101829.84;;;23.86;41.68
77537;BME280;67783;51.656;16.106;2023-06-14T14:35:19;101827.11;;;23.70;41.75
77537;BME280;67783;51.656;16.106;2023-06-14T14:38:21;101824.57;;;23.85;41.79
77537;BME280;67783;51.656;16.106;2023-06-14T14:43:05;101824.88;;;23.90;41.76
77537;BME280;67783;51.656;16.106;2023-06-14T14:46:07;101825.07;;;23.80;41.59
77537;BME280;67783;51.656;16.106;2023-06-14T14:49:09;101831.05;;;23.76;41.82
77537;BME280;67783;51.656;16.106;2023-06-14T14:52:14;101834.63;;;23.52;42.14
77537;BME280;67783;51.656;16.106;2023-06-14T14:55:26;101841.55;;;23.30;42.73
77537;BME280;67783;51.656;16.106;2023-06-14T14:58:28;101841.34;;;23.24;42.67
77537;BME280;67783;51.656;16.106;2023-06-14T15:01:29;101837.85;;;22.97;43.08
77537;BME280;67783;51.656;16.106;2023-06-14T15:04:31;101837.99;;;22.96;43.11
77537;BME280;67783;51.656;16.106;2023-06-14T15:07:33;101832.00;;;22.92;43.22
77537;BME280;67783;51.656;16.106;2023-06-14T15:10:46;101826.16;;;22.87;43.59
77537;BME280;67783;51.656;16.106;2023-06-14T15:13:53;101826.99;;;22.80;43.60
77537;BME280;67783;51.656;16.106;2023-06-14T15:16:54;101824.41;;;22.78;43.71
77537;BME280;67783;51.656;16.106;2023-06-14T15:19:56;101826.80;;;22.73;43.85
77537;BME280;67783;51.656;16.106;2023-06-14T15:23:01;101824.82;;;22.66;43.99
77537;BME280;67783;51.656;16.106;2023-06-14T15:26:07;101822.42;;;22.63;45.31
77537;BME280;67783;51.656;16.106;2023-06-14T15:29:08;101818.15;;;22.60;44.78
77537;BME280;67783;51.656;16.106;2023-06-14T15:32:10;101824.44;;;22.52;45.35
77537;BME280;67783;51.656;16.106;2023-06-14T15:35:12;101817.24;;;22.51;44.74
77537;BME280;67783;51.656;16.106;2023-06-14T15:38:13;101824.91;;;22.48;44.96
77537;BME280;67783;51.656;16.106;2023-06-14T15:41:15;101828.52;;;22.48;44.83
77537;BME280;67783;51.656;16.106;2023-06-14T15:44:17;101824.20;;;22.46;44.97
77537;BME280;67783;51.656;16.106;2023-06-14T15:47:22;101821.33;;;22.47;45.82
77537;BME280;67783;51.656;16.106;2023-06-14T15:50:24;101818.15;;;22.60;44.81
77537;BME280;67783;51.656;16.106;2023-06-14T15:53:26;101819.27;;;22.75;44.47
77537;BME280;67783;51.656;16.106;2023-06-14T15:56:28;101814.85;;;22.82;44.05
77537;BME280;67783;51.656;16.106;2023-06-14T15:59:31;101817.21;;;22.69;43.95
77537;BME280;67783;51.656;16.106;2023-06-14T16:02:42;101814.47;;;22.69;43.63